sensor_id;sensor_type;location;lat;lon;timestamp;temperature;humidity
10530;DHT22;5313;48.834;9.228;2023-04-22T00:00:36;12.60;99.90
10530;DHT22;5313;48.834;9.228;2023-04-22T00:03:02;12.60;99.90
10530;DHT22;5313;48.834;9.228;2023-04-22T00:05:28;12.60;99.90
10530;DHT22;5313;48.834;9.228;2023-04-22T00:07:54;12.50;99.90
10530;DHT22;5313;48.834;9.228;2023-04-22T00:10:19;12.50;99.90
10530;DHT22;5313;48.834;9.228;2023-04-22T00:12:45;12.20;99.90
10530;DHT22;5313;48.834;9.228;2023-04-22T00:15:11;12.10;99.90
10530;DHT22;5313;48.834;9.228;2023-04-22T00:17:36;12.10;99.90
10530;DHT22;5313;48.834;9.228;2023-04-22T00:20:02;12.30;99.90
10530;DHT22;5313;48.834;9.228;2023-04-22T00:22:28;12.30;99.90
10530;DHT22;5313;48.834;9.228;2023-04-22T00:24:54;12.30;99.90
10530;DHT22;5313;48.834;9.228;2023-04-22T00:27:19;12.40;99.90
10530;DHT22;5313;48.834;9.228;2023-04-22T00:29:45;12.30;99.90
10530;DHT22;5313;48.834;9.228;2023-04-22T00:32:10;12.30;99.90
10530;DHT22;5313;48.834;9.228;2023-04-22T00:34:36;12.20;99.90
10530;DHT22;5313;48.834;9.228;2023-04-22T00:37:01;12.20;99.90
10530;DHT22;5313;48.834;9.228;2023-04-22T00:39:27;12.20;99.90
10530;DHT22;5313;48.834;9.228;2023-04-22T00:41:53;12.20;99.90
10530;DHT22;5313;48.834;9.228;2023-04-22T00:44:19;12.30;99.90
10530;DHT22;5313;48.834;9.228;2023-04-22T00:46:45;12.10;99.90
10530;DHT22;5313;48.834;9.228;2023-04-22T00:49:11;12.00;99.90
10530;DHT22;5313;48.834;9.228;2023-04-22T00:51:36;12.00;99.90
10530;DHT22;5313;48.834;9.228;2023-04-22T00:54:02;12.10;99.90
10530;DHT22;5313;48.834;9.228;2023-04-22T00:56:29;12.20;99.90
10530;DHT22;5313;48.834;9.228;2023-04-22T00:58:56;12.20;99.90
10530;DHT22;5313;48.834;9.228;2023-04-22T01:01:22;12.20;99.90
10530;DHT22;5313;48.834;9.228;2023-04-22T01:03:48;12.10;99.90
10530;DHT22;5313;48.834;9.228;2023-04-22T01:06:18;12.30;99.90
10530;DHT22;5313;48.834;9.228;2023-04-22T01:08:44;12.30;99.90
10530;DHT22;5313;48.834;9.228;2023-04-22T01:11:10;12.20;99.90
10530;DHT22;5313;48.834;9.228;2023-04-22T01:13:36;12.20;99.90
10530;DHT22;5313;48.834;9.228;2023-04-22T01:16:03;12.10;99.90
10530;DHT22;5313;48.834;9.228;2023-04-22T01:18:32;12.10;99.90
10530;DHT22;5313;48.834;9.228;2023-04-22T01:20:58;12.10;99.90
10530;DHT22;5313;48.834;9.228;2023-04-22T01:23:23;12.10;99.90
10530;DHT22;5313;48.834;9.228;2023-04-22T01:25:49;12.00;99.90
10530;DHT22;5313;48.834;9.228;2023-04-22T01:28:16;11.80;99.90
10530;DHT22;5313;48.834;9.228;2023-04-22T01:30:42;11.80;99.90
10530;DHT22;5313;48.834;9.228;2023-04-22T01:33:09;11.80;99.90
10530;DHT22;5313;48.834;9.228;2023-04-22T01:35:35;11.80;99.90
10530;DHT22;5313;48.834;9.228;2023-04-22T01:38:05;11.90;99.90
10530;DHT22;5313;48.834;9.228;2023-04-22T01:40:31;11.80;99.90
10530;DHT22;5313;48.834;9.228;2023-04-22T01:43:00;11.70;99.90
10530;DHT22;5313;48.834;9.228;2023-04-22T01:45:26;11.60;99.90
10530;DHT22;5313;48.834;9.228;2023-04-22T01:47:52;11.60;99.90
10530;DHT22;5313;48.834;9.228;2023-04-22T01:50:18;11.60;99.90
10530;DHT22;5313;48.834;9.228;2023-04-22T01:52:44;11.60;99.90
10530;DHT22;5313;48.834;9.228;2023-04-22T01:55:09;11.70;99.90
10530;DHT22;5313;48.834;9.228;2023-04-22T01:57:35;11.70;99.90
10530;DHT22;5313;48.834;9.228;2023-04-22T02:00:02;11.70;99.90
10530;DHT22;5313;48.834;9.228;2023-04-22T02:02:27;11.60;99.90
10530;DHT22;5313;48.834;9.228;2023-04-22T02:04:53;11.60;99.90
10530;DHT22;5313;48.834;9.228;2023-04-22T02:07:18;11.70;99.90
10530;DHT22;5313;48.834;9.228;2023-04-22T02:09:44;11.70;99.90
10530;DHT22;5313;48.834;9.228;2023-04-22T02:12:10;11.70;99.90
10530;DHT22;5313;48.834;9.228;2023-04-22T02:14:35;11.60;99.90
10530;DHT22;5313;48.834;9.228;2023-04-22T02:17:01;11.50;99.90
10530;DHT22;5313;48.834;9.228;2023-04-22T02:19:27;11.50;99.90
10530;DHT22;5313;48.834;9.228;2023-04-22T02:21:53;11.50;99.90
10530;DHT22;5313;48.834;9.228;2023-04-22T02:24:20;11.40;99.90
10530;DHT22;5313;48.834;9.228;2023-04-22T02:26:45;11.40;99.90
10530;DHT22;5313;48.834;9.228;2023-04-22T02:29:11;11.50;99.90
10530;DHT22;5313;48.834;9.228;2023-04-22T02:31:37;11.60;99.90
10530;DHT22;5313;48.834;9.228;2023-04-22T02:34:02;11.60;99.90
10530;DHT22;5313;48.834;9.228;2023-04-22T02:36:28;11.50;99.90
10530;DHT22;5313;48.834;9.228;2023-04-22T02:38:54;11.40;99.90
10530;DHT22;5313;48.834;9.228;2023-04-22T02:41:19;11.30;99.90
10530;DHT22;5313;48.834;9.228;2023-04-22T02:43:45;11.20;99.90
10530;DHT22;5313;48.834;9.228;2023-04-22T02:46:14;11.20;99.90
10530;DHT22;5313;48.834;9.228;2023-04-22T02:48:41;11.40;99.90
10530;DHT22;5313;48.834;9.228;2023-04-22T02:51:07;11.40;99.90
10530;DHT22;5313;48.834;9.228;2023-04-22T02:53:32;11.30;99.90
10530;DHT22;5313;48.834;9.228;2023-04-22T02:55:58;11.30;99.90
10530;DHT22;5313;48.834;9.228;2023-04-22T02:58:23;11.10;99.90
10530;DHT22;5313;48.834;9.228;2023-04-22T03:00:51;11.10;99.90
10530;DHT22;5313;48.834;9.228;2023-04-22T03:03:16;10.90;99.90
10530;DHT22;5313;48.834;9.228;2023-04-22T03:05:42;10.90;99.90
10530;DHT22;5313;48.834;9.228;2023-04-22T03:08:07;10.90;99.90
10530;DHT22;5313;48.834;9.228;2023-04-22T03:10:33;10.90;99.90
10530;DHT22;5313;48.834;9.228;2023-04-22T03:12:58;10.90;99.90
10530;DHT22;5313;48.834;9.228;2023-04-22T03:15:24;10.90;99.90
10530;DHT22;5313;48.834;9.228;2023-04-22T03:17:49;10.80;99.90
10530;DHT22;5313;48.834;9.228;2023-04-22T03:20:15;10.80;99.90
10530;DHT22;5313;48.834;9.228;2023-04-22T03:22:41;10.80;99.90
10530;DHT22;5313;48.834;9.228;2023-04-22T03:25:07;10.80;99.90
10530;DHT22;5313;48.834;9.228;2023-04-22T03:27:32;10.80;99.90
10530;DHT22;5313;48.834;9.228;2023-04-22T03:29:58;10.90;99.90
10530;DHT22;5313;48.834;9.228;2023-04-22T03:32:23;10.80;99.90
10530;DHT22;5313;48.834;9.228;2023-04-22T03:34:49;10.90;99.90
10530;DHT22;5313;48.834;9.228;2023-04-22T03:37:15;10.80;99.90
10530;DHT22;5313;48.834;9.228;2023-04-22T03:39:40;10.80;99.90
10530;DHT22;5313;48.834;9.228;2023-04-22T03:42:06;10.90;99.90
10530;DHT22;5313;48.834;9.228;2023-04-22T03:44:31;10.80;99.90
10530;DHT22;5313;48.834;9.228;2023-04-22T03:46:57;10.70;99.90
10530;DHT22;5313;48.834;9.228;2023-04-22T03:49:22;10.70;99.90
10530;DHT22;5313;48.834;9.228;2023-04-22T03:51:48;10.60;99.90
10530;DHT22;5313;48.834;9.228;2023-04-22T03:54:13;10.70;99.90
10530;DHT22;5313;48.834;9.228;2023-04-22T03:56:39;10.70;99.90
10530;DHT22;5313;48.834;9.228;2023-04-22T03:59:05;10.70;99.90
10530;DHT22;5313;48.834;9.228;2023-04-22T04:01:30;10.70;99.90
10530;DHT22;5313;48.834;9.228;2023-04-22T04:03:56;10.70;99.90
10530;DHT22;5313;48.834;9.228;2023-04-22T04:06:21;10.70;99.90
10530;DHT22;5313;48.834;9.228;2023-04-22T04:08:47;10.60;99.90
10530;DHT22;5313;48.834;9.228;2023-04-22T04:11:12;10.50;99.90
10530;DHT22;5313;48.834;9.228;2023-04-22T04:13:38;10.50;99.90
10530;DHT22;5313;48.834;9.228;2023-04-22T04:16:03;10.50;99.90
10530;DHT22;5313;48.834;9.228;2023-04-22T04:18:29;10.40;99.90
10530;DHT22;5313;48.834;9.228;2023-04-22T04:20:55;10.50;99.90
10530;DHT22;5313;48.834;9.228;2023-04-22T04:23:21;10.50;99.90
10530;DHT22;5313;48.834;9.228;2023-04-22T04:25:46;10.60;99.90
10530;DHT22;5313;48.834;9.228;2023-04-22T04:28:12;10.60;99.90
10530;DHT22;5313;48.834;9.228;2023-04-22T04:30:38;10.70;99.90
10530;DHT22;5313;48.834;9.228;2023-04-22T04:33:05;10.80;99.90
10530;DHT22;5313;48.834;9.228;2023-04-22T04:35:33;10.80;99.90
10530;DHT22;5313;48.834;9.228;2023-04-22T04:38:00;10.80;99.90
10530;DHT22;5313;48.834;9.228;2023-04-22T04:40:26;10.80;99.90
10530;DHT22;5313;48.834;9.228;2023-04-22T04:42:53;10.80;99.90
10530;DHT22;5313;48.834;9.228;2023-04-22T04:45:20;10.70;99.90
10530;DHT22;5313;48.834;9.228;2023-04-22T04:47:46;10.60;99.90
10530;DHT22;5313;48.834;9.228;2023-04-22T04:50:15;10.60;99.90
10530;DHT22;5313;48.834;9.228;2023-04-22T04:52:41;10.60;99.90
10530;DHT22;5313;48.834;9.228;2023-04-22T04:55:07;10.60;99.90
10530;DHT22;5313;48.834;9.228;2023-04-22T04:57:32;10.70;99.90
10530;DHT22;5313;48.834;9.228;2023-04-22T04:59:58;10.80;99.90
10530;DHT22;5313;48.834;9.228;2023-04-22T05:02:23;10.80;99.90
10530;DHT22;5313;48.834;9.228;2023-04-22T05:04:49;10.80;99.90
10530;DHT22;5313;48.834;9.228;2023-04-22T05:07:14;10.90;99.90
10530;DHT22;5313;48.834;9.228;2023-04-22T05:09:40;10.80;99.90
10530;DHT22;5313;48.834;9.228;2023-04-22T05:12:05;10.70;99.90
10530;DHT22;5313;48.834;9.228;2023-04-22T05:14:31;10.50;99.90
10530;DHT22;5313;48.834;9.228;2023-04-22T05:16:56;10.50;99.90
10530;DHT22;5313;48.834;9.228;2023-04-22T05:19:22;10.50;99.90
10530;DHT22;5313;48.834;9.228;2023-04-22T05:21:48;10.60;99.90
10530;DHT22;5313;48.834;9.228;2023-04-22T05:24:13;10.60;99.90
10530;DHT22;5313;48.834;9.228;2023-04-22T05:26:39;10.60;99.90
10530;DHT22;5313;48.834;9.228;2023-04-22T05:29:04;10.60;99.90
10530;DHT22;5313;48.834;9.228;2023-04-22T05:31:31;10.50;99.90
10530;DHT22;5313;48.834;9.228;2023-04-22T05:33:56;10.50;99.90
10530;DHT22;5313;48.834;9.228;2023-04-22T05:36:22;10.40;99.90
10530;DHT22;5313;48.834;9.228;2023-04-22T05:38:47;10.40;99.90
10530;DHT22;5313;48.834;9.228;2023-04-22T05:41:13;10.40;99.90
10530;DHT22;5313;48.834;9.228;2023-04-22T05:43:38;10.40;99.90
10530;DHT22;5313;48.834;9.228;2023-04-22T05:46:04;10.50;99.90
10530;DHT22;5313;48.834;9.228;2023-04-22T05:48:30;10.60;99.90
10530;DHT22;5313;48.834;9.228;2023-04-22T05:50:55;10.60;99.90
10530;DHT22;5313;48.834;9.228;2023-04-22T05:53:21;10.80;99.90
10530;DHT22;5313;48.834;9.228;2023-04-22T05:55:47;10.90;99.90
10530;DHT22;5313;48.834;9.228;2023-04-22T05:58:12;10.90;99.90
10530;DHT22;5313;48.834;9.228;2023-04-22T06:00:38;10.90;99.90
10530;DHT22;5313;48.834;9.228;2023-04-22T06:03:03;11.10;99.90
10530;DHT22;5313;48.834;9.228;2023-04-22T06:05:29;11.20;99.90
10530;DHT22;5313;48.834;9.228;2023-04-22T06:07:54;11.30;99.90
10530;DHT22;5313;48.834;9.228;2023-04-22T06:10:20;11.40;99.90
10530;DHT22;5313;48.834;9.228;2023-04-22T06:12:45;11.40;99.90
10530;DHT22;5313;48.834;9.228;2023-04-22T06:15:11;11.50;99.90
10530;DHT22;5313;48.834;9.228;2023-04-22T06:17:36;11.60;99.90
10530;DHT22;5313;48.834;9.228;2023-04-22T06:20:02;11.70;99.90
10530;DHT22;5313;48.834;9.228;2023-04-22T06:22:28;11.90;99.90
10530;DHT22;5313;48.834;9.228;2023-04-22T06:24:53;12.10;99.90
10530;DHT22;5313;48.834;9.228;2023-04-22T06:27:19;12.10;99.90
10530;DHT22;5313;48.834;9.228;2023-04-22T06:29:44;12.10;99.90
10530;DHT22;5313;48.834;9.228;2023-04-22T06:32:10;12.10;99.90
10530;DHT22;5313;48.834;9.228;2023-04-22T06:34:35;12.30;99.90
10530;DHT22;5313;48.834;9.228;2023-04-22T06:37:03;12.40;99.90
10530;DHT22;5313;48.834;9.228;2023-04-22T06:39:28;12.50;99.90
10530;DHT22;5313;48.834;9.228;2023-04-22T06:41:54;12.50;99.90
10530;DHT22;5313;48.834;9.228;2023-04-22T06:44:20;12.50;99.90
10530;DHT22;5313;48.834;9.228;2023-04-22T06:46:45;12.50;99.90
10530;DHT22;5313;48.834;9.228;2023-04-22T06:49:11;12.50;99.90
10530;DHT22;5313;48.834;9.228;2023-04-22T06:51:36;12.50;99.90
10530;DHT22;5313;48.834;9.228;2023-04-22T06:54:02;12.50;99.90
10530;DHT22;5313;48.834;9.228;2023-04-22T06:56:28;12.60;99.90
10530;DHT22;5313;48.834;9.228;2023-04-22T06:58:54;12.70;99.90
10530;DHT22;5313;48.834;9.228;2023-04-22T07:01:19;12.70;99.90
10530;DHT22;5313;48.834;9.228;2023-04-22T07:03:45;12.70;99.90
10530;DHT22;5313;48.834;9.228;2023-04-22T07:06:11;12.80;99.90
10530;DHT22;5313;48.834;9.228;2023-04-22T07:08:36;12.90;99.90
10530;DHT22;5313;48.834;9.228;2023-04-22T07:11:02;13.00;99.90
10530;DHT22;5313;48.834;9.228;2023-04-22T07:13:27;13.00;99.90
10530;DHT22;5313;48.834;9.228;2023-04-22T07:15:53;13.10;99.90
10530;DHT22;5313;48.834;9.228;2023-04-22T07:18:19;13.30;99.90
10530;DHT22;5313;48.834;9.228;2023-04-22T07:20:44;13.40;99.90
10530;DHT22;5313;48.834;9.228;2023-04-22T07:23:10;13.70;99.90
10530;DHT22;5313;48.834;9.228;2023-04-22T07:25:35;13.70;99.90
10530;DHT22;5313;48.834;9.228;2023-04-22T07:28:01;13.70;99.90
10530;DHT22;5313;48.834;9.228;2023-04-22T07:30:27;13.70;99.90
10530;DHT22;5313;48.834;9.228;2023-04-22T07:32:52;13.80;99.90
10530;DHT22;5313;48.834;9.228;2023-04-22T07:35:17;13.90;99.90
10530;DHT22;5313;48.834;9.228;2023-04-22T07:37:43;14.00;99.90
10530;DHT22;5313;48.834;9.228;2023-04-22T07:40:09;14.20;99.90
10530;DHT22;5313;48.834;9.228;2023-04-22T07:42:37;14.50;99.90
10530;DHT22;5313;48.834;9.228;2023-04-22T07:45:03;14.70;99.90
10530;DHT22;5313;48.834;9.228;2023-04-22T07:47:29;14.90;99.90
10530;DHT22;5313;48.834;9.228;2023-04-22T07:49:54;15.00;99.90
10530;DHT22;5313;48.834;9.228;2023-04-22T07:52:20;15.20;99.90
10530;DHT22;5313;48.834;9.228;2023-04-22T07:54:45;15.30;99.90
10530;DHT22;5313;48.834;9.228;2023-04-22T07:57:11;15.40;99.90
10530;DHT22;5313;48.834;9.228;2023-04-22T07:59:37;15.50;99.90
10530;DHT22;5313;48.834;9.228;2023-04-22T08:02:02;15.70;99.90
10530;DHT22;5313;48.834;9.228;2023-04-22T08:04:28;15.80;99.90
10530;DHT22;5313;48.834;9.228;2023-04-22T08:06:53;15.90;99.90
10530;DHT22;5313;48.834;9.228;2023-04-22T08:09:19;15.90;99.90
10530;DHT22;5313;48.834;9.228;2023-04-22T08:11:44;15.90;99.90
10530;DHT22;5313;48.834;9.228;2023-04-22T08:14:10;15.90;99.90
10530;DHT22;5313;48.834;9.228;2023-04-22T08:16:37;15.90;99.90
10530;DHT22;5313;48.834;9.228;2023-04-22T08:19:02;16.00;99.90
10530;DHT22;5313;48.834;9.228;2023-04-22T08:21:28;16.10;99.90
10530;DHT22;5313;48.834;9.228;2023-04-22T08:23:53;16.00;99.90
10530;DHT22;5313;48.834;9.228;2023-04-22T08:26:19;15.80;99.90
10530;DHT22;5313;48.834;9.228;2023-04-22T08:28:45;15.80;99.90
10530;DHT22;5313;48.834;9.228;2023-04-22T08:31:11;15.70;99.90
10530;DHT22;5313;48.834;9.228;2023-04-22T08:33:41;15.50;99.90
10530;DHT22;5313;48.834;9.228;2023-04-22T08:36:07;15.60;99.90
10530;DHT22;5313;48.834;9.228;2023-04-22T08:38:33;15.70;99.90
10530;DHT22;5313;48.834;9.228;2023-04-22T08:40:59;15.80;99.90
10530;DHT22;5313;48.834;9.228;2023-04-22T08:43:25;15.90;99.90
10530;DHT22;5313;48.834;9.228;2023-04-22T08:45:51;16.10;99.90
10530;DHT22;5313;48.834;9.228;2023-04-22T08:48:18;16.20;99.90
10530;DHT22;5313;48.834;9.228;2023-04-22T08:50:46;16.40;99.90
10530;DHT22;5313;48.834;9.228;2023-04-22T08:53:12;16.40;99.90
10530;DHT22;5313;48.834;9.228;2023-04-22T08:55:39;16.70;99.90
10530;DHT22;5313;48.834;9.228;2023-04-22T08:58:07;16.80;99.90
10530;DHT22;5313;48.834;9.228;2023-04-22T09:00:34;17.20;99.90
10530;DHT22;5313;48.834;9.228;2023-04-22T09:03:01;17.30;99.90
10530;DHT22;5313;48.834;9.228;2023-04-22T09:05:28;17.50;99.90
10530;DHT22;5313;48.834;9.228;2023-04-22T09:07:57;17.70;99.90
10530;DHT22;5313;48.834;9.228;2023-04-22T09:10:22;17.70;99.90
10530;DHT22;5313;48.834;9.228;2023-04-22T09:12:48;17.80;99.90
10530;DHT22;5313;48.834;9.228;2023-04-22T09:15:14;18.10;99.90
10530;DHT22;5313;48.834;9.228;2023-04-22T09:17:39;18.30;99.90
10530;DHT22;5313;48.834;9.228;2023-04-22T09:20:06;18.20;99.90
10530;DHT22;5313;48.834;9.228;2023-04-22T09:22:43;18.40;99.90
10530;DHT22;5313;48.834;9.228;2023-04-22T09:25:20;18.60;99.90
10530;DHT22;5313;48.834;9.228;2023-04-22T09:27:53;18.60;99.90
10530;DHT22;5313;48.834;9.228;2023-04-22T09:30:27;19.10;99.90
10530;DHT22;5313;48.834;9.228;2023-04-22T09:32:54;19.20;99.90
10530;DHT22;5313;48.834;9.228;2023-04-22T09:35:29;19.00;99.90
10530;DHT22;5313;48.834;9.228;2023-04-22T09:37:56;19.20;99.90
10530;DHT22;5313;48.834;9.228;2023-04-22T09:40:23;19.20;99.90
10530;DHT22;5313;48.834;9.228;2023-04-22T09:42:51;19.00;99.90
10530;DHT22;5313;48.834;9.228;2023-04-22T09:45:34;19.20;99.90
10530;DHT22;5313;48.834;9.228;2023-04-22T09:48:16;19.50;99.90
10530;DHT22;5313;48.834;9.228;2023-04-22T09:50:43;19.50;99.90
10530;DHT22;5313;48.834;9.228;2023-04-22T09:53:13;19.50;99.90
10530;DHT22;5313;48.834;9.228;2023-04-22T09:55:41;19.90;99.90
10530;DHT22;5313;48.834;9.228;2023-04-22T09:58:18;20.30;99.90
10530;DHT22;5313;48.834;9.228;2023-04-22T10:00:46;20.30;99.90
10530;DHT22;5313;48.834;9.228;2023-04-22T10:03:13;20.40;99.90
10530;DHT22;5313;48.834;9.228;2023-04-22T10:05:39;20.70;99.90
10530;DHT22;5313;48.834;9.228;2023-04-22T10:08:06;20.80;99.90
10530;DHT22;5313;48.834;9.228;2023-04-22T10:10:33;20.30;99.90
10530;DHT22;5313;48.834;9.228;2023-04-22T10:13:00;20.30;99.90
10530;DHT22;5313;48.834;9.228;2023-04-22T10:15:38;20.30;99.90
10530;DHT22;5313;48.834;9.228;2023-04-22T10:18:06;20.40;99.90
10530;DHT22;5313;48.834;9.228;2023-04-22T10:20:35;20.70;99.90
10530;DHT22;5313;48.834;9.228;2023-04-22T10:23:03;21.00;99.90
10530;DHT22;5313;48.834;9.228;2023-04-22T10:25:29;20.80;99.90
10530;DHT22;5313;48.834;9.228;2023-04-22T10:28:07;21.00;99.90
10530;DHT22;5313;48.834;9.228;2023-04-22T10:30:35;21.10;99.90
10530;DHT22;5313;48.834;9.228;2023-04-22T10:36:04;21.80;99.90
10530;DHT22;5313;48.834;9.228;2023-04-22T10:38:34;21.90;99.90
10530;DHT22;5313;48.834;9.228;2023-04-22T10:41:00;21.90;99.90
10530;DHT22;5313;48.834;9.228;2023-04-22T10:43:47;22.10;99.90
10530;DHT22;5313;48.834;9.228;2023-04-22T10:51:51;21.80;97.20
10530;DHT22;5313;48.834;9.228;2023-04-22T10:59:29;22.30;95.00
10530;DHT22;5313;48.834;9.228;2023-04-22T11:02:00;22.60;93.60
10530;DHT22;5313;48.834;9.228;2023-04-22T11:04:26;22.70;91.00
10530;DHT22;5313;48.834;9.228;2023-04-22T11:07:14;22.80;89.80
10530;DHT22;5313;48.834;9.228;2023-04-22T11:09:43;22.80;90.70
10530;DHT22;5313;48.834;9.228;2023-04-22T11:15:15;23.30;76.00
10530;DHT22;5313;48.834;9.228;2023-04-22T11:17:45;23.70;75.60
10530;DHT22;5313;48.834;9.228;2023-04-22T11:20:12;23.30;72.00
10530;DHT22;5313;48.834;9.228;2023-04-22T11:22:42;23.60;73.30
10530;DHT22;5313;48.834;9.228;2023-04-22T11:25:08;23.30;75.70
10530;DHT22;5313;48.834;9.228;2023-04-22T11:27:35;23.50;70.80
10530;DHT22;5313;48.834;9.228;2023-04-22T11:30:12;23.30;71.00
10530;DHT22;5313;48.834;9.228;2023-04-22T11:32:41;23.40;69.00
10530;DHT22;5313;48.834;9.228;2023-04-22T11:35:09;23.70;69.60
10530;DHT22;5313;48.834;9.228;2023-04-22T11:37:44;23.80;68.30
10530;DHT22;5313;48.834;9.228;2023-04-22T11:40:11;24.60;65.60
10530;DHT22;5313;48.834;9.228;2023-04-22T11:42:37;24.80;63.60
10530;DHT22;5313;48.834;9.228;2023-04-22T11:45:04;24.50;62.00
10530;DHT22;5313;48.834;9.228;2023-04-22T11:47:30;24.90;57.50
10530;DHT22;5313;48.834;9.228;2023-04-22T11:50:01;24.90;57.80
10530;DHT22;5313;48.834;9.228;2023-04-22T11:52:52;25.00;57.80
10530;DHT22;5313;48.834;9.228;2023-04-22T11:55:21;24.80;55.40
10530;DHT22;5313;48.834;9.228;2023-04-22T11:57:54;24.50;55.60
10530;DHT22;5313;48.834;9.228;2023-04-22T12:00:21;24.10;54.70
10530;DHT22;5313;48.834;9.228;2023-04-22T12:03:00;23.80;55.90
10530;DHT22;5313;48.834;9.228;2023-04-22T12:05:40;23.60;57.00
10530;DHT22;5313;48.834;9.228;2023-04-22T12:08:17;23.50;57.40
10530;DHT22;5313;48.834;9.228;2023-04-22T12:10:54;23.30;57.20
10530;DHT22;5313;48.834;9.228;2023-04-22T12:13:26;23.70;57.60
10530;DHT22;5313;48.834;9.228;2023-04-22T12:16:04;24.30;56.50
10530;DHT22;5313;48.834;9.228;2023-04-22T12:18:31;24.00;54.60
10530;DHT22;5313;48.834;9.228;2023-04-22T12:21:08;24.20;55.40
10530;DHT22;5313;48.834;9.228;2023-04-22T12:26:07;24.00;57.00
10530;DHT22;5313;48.834;9.228;2023-04-22T12:28:32;23.50;57.50
10530;DHT22;5313;48.834;9.228;2023-04-22T12:30:58;23.30;59.20
10530;DHT22;5313;48.834;9.228;2023-04-22T12:33:23;23.50;59.00
10530;DHT22;5313;48.834;9.228;2023-04-22T12:35:49;23.50;59.90
10530;DHT22;5313;48.834;9.228;2023-04-22T12:38:17;23.60;59.10
10530;DHT22;5313;48.834;9.228;2023-04-22T12:40:42;23.80;58.70
10530;DHT22;5313;48.834;9.228;2023-04-22T12:43:08;24.00;58.30
10530;DHT22;5313;48.834;9.228;2023-04-22T12:45:34;24.60;58.50
10530;DHT22;5313;48.834;9.228;2023-04-22T12:47:59;24.60;57.30
10530;DHT22;5313;48.834;9.228;2023-04-22T12:50:25;23.90;59.30
10530;DHT22;5313;48.834;9.228;2023-04-22T12:52:51;23.70;60.20
10530;DHT22;5313;48.834;9.228;2023-04-22T12:55:16;23.50;60.00
10530;DHT22;5313;48.834;9.228;2023-04-22T12:57:44;23.20;59.30
10530;DHT22;5313;48.834;9.228;2023-04-22T13:00:10;23.00;59.50
10530;DHT22;5313;48.834;9.228;2023-04-22T13:02:42;23.10;60.90
10530;DHT22;5313;48.834;9.228;2023-04-22T13:05:09;23.10;59.50
10530;DHT22;5313;48.834;9.228;2023-04-22T13:07:35;22.90;60.30
10530;DHT22;5313;48.834;9.228;2023-04-22T13:10:01;23.00;61.30
10530;DHT22;5313;48.834;9.228;2023-04-22T13:12:27;23.30;61.70
10530;DHT22;5313;48.834;9.228;2023-04-22T13:14:52;23.50;60.50
10530;DHT22;5313;48.834;9.228;2023-04-22T13:17:17;23.50;59.20
10530;DHT22;5313;48.834;9.228;2023-04-22T13:19:43;23.30;58.10
10530;DHT22;5313;48.834;9.228;2023-04-22T13:22:09;23.20;57.70
10530;DHT22;5313;48.834;9.228;2023-04-22T13:24:35;23.20;57.90
10530;DHT22;5313;48.834;9.228;2023-04-22T13:27:00;23.00;57.70
10530;DHT22;5313;48.834;9.228;2023-04-22T13:29:27;22.90;58.40
10530;DHT22;5313;48.834;9.228;2023-04-22T13:31:53;22.70;58.90
10530;DHT22;5313;48.834;9.228;2023-04-22T13:34:18;22.70;60.00
10530;DHT22;5313;48.834;9.228;2023-04-22T13:36:44;22.70;59.90
10530;DHT22;5313;48.834;9.228;2023-04-22T13:39:10;22.70;59.50
10530;DHT22;5313;48.834;9.228;2023-04-22T13:41:36;22.60;66.40
10530;DHT22;5313;48.834;9.228;2023-04-22T13:44:01;22.50;76.20
10530;DHT22;5313;48.834;9.228;2023-04-22T13:46:28;22.30;85.40
10530;DHT22;5313;48.834;9.228;2023-04-22T13:48:54;22.40;90.10
10530;DHT22;5313;48.834;9.228;2023-04-22T13:51:21;22.30;90.40
10530;DHT22;5313;48.834;9.228;2023-04-22T13:53:46;22.20;91.50
10530;DHT22;5313;48.834;9.228;2023-04-22T13:56:12;22.30;91.80
10530;DHT22;5313;48.834;9.228;2023-04-22T13:58:39;22.10;91.40
10530;DHT22;5313;48.834;9.228;2023-04-22T14:01:06;22.00;92.00
10530;DHT22;5313;48.834;9.228;2023-04-22T14:03:31;22.00;92.30
10530;DHT22;5313;48.834;9.228;2023-04-22T14:05:57;21.80;91.60
10530;DHT22;5313;48.834;9.228;2023-04-22T14:08:23;21.80;92.40
10530;DHT22;5313;48.834;9.228;2023-04-22T14:10:48;21.90;92.70
10530;DHT22;5313;48.834;9.228;2023-04-22T14:13:14;22.10;92.70
10530;DHT22;5313;48.834;9.228;2023-04-22T14:15:39;22.10;90.00
10530;DHT22;5313;48.834;9.228;2023-04-22T14:18:05;22.00;90.60
10530;DHT22;5313;48.834;9.228;2023-04-22T14:20:30;22.20;90.20
10530;DHT22;5313;48.834;9.228;2023-04-22T14:22:56;22.10;88.40
10530;DHT22;5313;48.834;9.228;2023-04-22T14:25:21;22.20;89.10
10530;DHT22;5313;48.834;9.228;2023-04-22T14:27:47;22.20;87.40
10530;DHT22;5313;48.834;9.228;2023-04-22T14:30:13;22.10;88.70
10530;DHT22;5313;48.834;9.228;2023-04-22T14:32:40;22.10;87.70
10530;DHT22;5313;48.834;9.228;2023-04-22T14:35:06;22.00;87.70
10530;DHT22;5313;48.834;9.228;2023-04-22T14:37:32;22.10;85.90
10530;DHT22;5313;48.834;9.228;2023-04-22T14:39:58;22.10;84.10
10530;DHT22;5313;48.834;9.228;2023-04-22T14:42:24;22.10;79.60
10530;DHT22;5313;48.834;9.228;2023-04-22T14:44:50;22.10;80.80
10530;DHT22;5313;48.834;9.228;2023-04-22T14:47:15;22.20;81.70
10530;DHT22;5313;48.834;9.228;2023-04-22T14:49:41;22.30;79.50
10530;DHT22;5313;48.834;9.228;2023-04-22T14:52:06;22.10;77.60
10530;DHT22;5313;48.834;9.228;2023-04-22T14:54:32;22.10;81.40
10530;DHT22;5313;48.834;9.228;2023-04-22T14:56:58;22.10;83.60
10530;DHT22;5313;48.834;9.228;2023-04-22T14:59:24;22.20;86.60
10530;DHT22;5313;48.834;9.228;2023-04-22T15:01:49;22.30;83.10
10530;DHT22;5313;48.834;9.228;2023-04-22T15:04:15;22.40;80.60
10530;DHT22;5313;48.834;9.228;2023-04-22T15:06:41;22.50;78.40
10530;DHT22;5313;48.834;9.228;2023-04-22T15:09:07;22.60;77.80
10530;DHT22;5313;48.834;9.228;2023-04-22T15:11:32;22.40;77.00
10530;DHT22;5313;48.834;9.228;2023-04-22T15:13:58;22.20;75.60
10530;DHT22;5313;48.834;9.228;2023-04-22T15:16:23;22.10;78.00
10530;DHT22;5313;48.834;9.228;2023-04-22T15:18:49;22.00;78.20
10530;DHT22;5313;48.834;9.228;2023-04-22T15:21:14;22.10;77.70
10530;DHT22;5313;48.834;9.228;2023-04-22T15:23:40;22.10;77.90
10530;DHT22;5313;48.834;9.228;2023-04-22T15:26:05;22.10;77.60
10530;DHT22;5313;48.834;9.228;2023-04-22T15:28:32;22.10;78.80
10530;DHT22;5313;48.834;9.228;2023-04-22T15:30:57;22.10;79.30
10530;DHT22;5313;48.834;9.228;2023-04-22T15:33:23;22.10;77.40
10530;DHT22;5313;48.834;9.228;2023-04-22T15:35:48;21.90;77.10
10530;DHT22;5313;48.834;9.228;2023-04-22T15:38:15;21.80;79.10
10530;DHT22;5313;48.834;9.228;2023-04-22T15:40:41;21.80;79.40
10530;DHT22;5313;48.834;9.228;2023-04-22T15:43:06;21.70;79.70
10530;DHT22;5313;48.834;9.228;2023-04-22T15:45:33;21.70;80.10
10530;DHT22;5313;48.834;9.228;2023-04-22T15:48:00;21.70;81.60
10530;DHT22;5313;48.834;9.228;2023-04-22T15:50:25;21.70;80.80
10530;DHT22;5313;48.834;9.228;2023-04-22T15:52:51;21.80;80.90
10530;DHT22;5313;48.834;9.228;2023-04-22T15:55:18;21.60;80.80
10530;DHT22;5313;48.834;9.228;2023-04-22T15:57:44;21.60;81.20
10530;DHT22;5313;48.834;9.228;2023-04-22T16:00:10;21.50;81.10